createdAt,value
2022-10-27T00:00:22.356Z,97059.94
2022-10-27T00:02:50.400Z,97055.97
2022-10-27T00:05:18.243Z,97068.81
2022-10-27T00:07:46.018Z,97062.66
2022-10-27T00:10:15.385Z,97057.91
2022-10-27T00:12:43.424Z,97058.06
2022-10-27T00:15:12.424Z,97056.66
2022-10-27T00:17:40.168Z,97067.63
2022-10-27T00:20:09.482Z,97060.09
2022-10-27T00:22:37.443Z,97063.69
2022-10-27T00:25:06.069Z,97069.81
2022-10-27T00:27:35.164Z,97071.66
2022-10-27T00:30:02.882Z,97075.16
2022-10-27T00:32:30.586Z,97075.66
2022-10-27T00:34:58.464Z,97083.25
2022-10-27T00:37:26.174Z,97079.59
2022-10-27T00:39:53.883Z,97083.16
2022-10-27T00:42:21.684Z,97084.50
2022-10-27T00:44:50.813Z,97078.50
2022-10-27T00:47:23.554Z,97075.06
2022-10-27T00:49:58.481Z,97073.72
2022-10-27T00:52:31.696Z,97080.41
2022-10-27T00:55:03.924Z,97081.72
2022-10-27T00:57:33.788Z,97077.38
2022-10-27T01:00:05.094Z,97073.09
2022-10-27T01:02:33.598Z,97077.38
2022-10-27T01:05:06.125Z,97074.13
2022-10-27T01:07:34.806Z,97079.03
2022-10-27T01:10:02.922Z,97078.06
2022-10-27T01:12:30.627Z,97087.03
2022-10-27T01:14:58.354Z,97090.59
2022-10-27T01:17:41.829Z,97088.16
2022-10-27T01:20:46.231Z,97081.69
2022-10-27T01:23:22.709Z,97083.00
2022-10-27T01:26:26.455Z,97078.75
2022-10-27T01:29:38.243Z,97090.25
2022-10-27T01:32:17.848Z,97090.19
2022-10-27T01:34:48.735Z,97086.13
2022-10-27T01:37:21.553Z,97088.94
2022-10-27T01:39:54.630Z,97092.44
2022-10-27T01:42:27.576Z,97087.84
2022-10-27T01:44:57.617Z,97093.59
2022-10-27T01:47:28.377Z,97089.00
2022-10-27T01:49:56.087Z,97092.75
2022-10-27T01:52:44.167Z,97088.69
2022-10-27T01:55:16.716Z,97085.13
2022-10-27T01:58:02.768Z,97089.66
2022-10-27T02:00:34.613Z,97088.03
2022-10-27T02:03:11.093Z,97082.13
2022-10-27T02:05:45.888Z,97084.31
2022-10-27T02:08:21.428Z,97087.84
2022-10-27T02:10:57.391Z,97093.50
2022-10-27T02:13:26.059Z,97088.38
2022-10-27T02:15:58.638Z,97088.44
2022-10-27T02:18:31.853Z,97082.44
2022-10-27T02:23:31.933Z,97086.50
2022-10-27T02:26:04.946Z,97095.16
2022-10-27T02:28:37.868Z,97097.03
2022-10-27T02:31:07.576Z,97095.16
2022-10-27T02:33:37.203Z,97096.25
2022-10-27T02:36:05.408Z,97089.00
2022-10-27T02:38:33.104Z,97088.81
2022-10-27T02:41:00.820Z,97088.84
2022-10-27T02:43:28.558Z,97093.94
2022-10-27T02:45:56.259Z,97088.00
2022-10-27T02:48:24.011Z,97085.88
2022-10-27T02:50:53.061Z,97080.88
2022-10-27T02:53:20.763Z,97090.91
2022-10-27T02:55:48.487Z,97096.53
2022-10-27T02:58:16.279Z,97100.31
2022-10-27T03:00:44.032Z,97106.50
2022-10-27T03:03:12.037Z,97103.59
2022-10-27T03:05:39.737Z,97099.34
2022-10-27T03:08:09.163Z,97090.44
2022-10-27T03:10:36.875Z,97088.56
2022-10-27T03:13:04.599Z,97083.91
2022-10-27T03:15:32.340Z,97087.44
2022-10-27T03:18:00.021Z,97094.25
2022-10-27T03:20:27.986Z,97091.28
2022-10-27T03:22:55.743Z,97085.59
2022-10-27T03:25:24.901Z,97099.44
2022-10-27T03:27:53.683Z,97095.97
2022-10-27T03:30:21.500Z,97092.81
2022-10-27T03:32:50.904Z,97089.63
2022-10-27T03:35:20.111Z,97087.78
2022-10-27T03:37:55.336Z,97098.59
2022-10-27T03:40:24.601Z,97093.75
2022-10-27T03:42:54.036Z,97102.34
2022-10-27T03:45:21.803Z,97108.59
2022-10-27T03:47:49.541Z,97099.41
2022-10-27T03:50:17.471Z,97099.44
2022-10-27T03:52:45.177Z,97104.53
2022-10-27T03:55:12.886Z,97105.84
2022-10-27T03:57:41.937Z,97104.47
2022-10-27T04:00:11.131Z,97102.84
2022-10-27T04:02:41.418Z,97099.28
2022-10-27T04:05:10.054Z,97103.03
2022-10-27T04:07:38.251Z,97099.25
2022-10-27T04:10:06.855Z,97098.72
2022-10-27T04:12:34.555Z,97106.22
2022-10-27T04:15:03.786Z,97107.56
2022-10-27T04:17:31.493Z,97100.03
2022-10-27T04:19:59.143Z,97106.25
2022-10-27T04:22:26.808Z,97099.28
2022-10-27T04:24:54.554Z,97098.56
2022-10-27T04:27:22.255Z,97102.63
2022-10-27T04:29:49.959Z,97106.09
2022-10-27T04:32:19.079Z,97111.25
2022-10-27T04:34:46.800Z,97103.41
2022-10-27T04:37:14.712Z,97110.19
2022-10-27T04:39:42.426Z,97104.50
2022-10-27T04:42:11.773Z,97101.00
2022-10-27T04:44:39.499Z,97107.19
2022-10-27T04:47:07.183Z,97112.59
2022-10-27T04:49:36.236Z,97113.41
2022-10-27T04:52:03.969Z,97111.78
2022-10-27T04:54:31.820Z,97123.91
2022-10-27T04:56:59.547Z,97124.47
2022-10-27T04:59:27.317Z,97121.78
2022-10-27T05:01:55.106Z,97120.38
2022-10-27T05:04:22.904Z,97129.31
2022-10-27T05:06:51.964Z,97127.69
2022-10-27T05:09:19.682Z,97128.47
2022-10-27T05:11:47.371Z,97126.06
2022-10-27T05:14:15.087Z,97133.06
2022-10-27T05:16:42.783Z,97134.69
2022-10-27T05:19:10.454Z,97129.63
2022-10-27T05:21:38.139Z,97137.72
2022-10-27T05:24:07.688Z,97133.94
2022-10-27T05:26:37.874Z,97131.78
2022-10-27T05:29:05.947Z,97129.38
2022-10-27T05:31:33.749Z,97132.88
2022-10-27T05:34:01.434Z,97131.78
2022-10-27T05:36:29.117Z,97125.88
2022-10-27T05:38:56.849Z,97121.56
2022-10-27T05:41:25.959Z,97125.06
2022-10-27T05:43:53.776Z,97115.63
2022-10-27T05:46:21.454Z,97128.06
2022-10-27T05:48:49.249Z,97133.44
2022-10-27T05:51:19.330Z,97129.41
2022-10-27T05:53:51.453Z,97128.59
2022-10-27T05:56:19.168Z,97127.00
2022-10-27T05:58:48.179Z,97134.28
2022-10-27T06:01:16.050Z,97136.13
2022-10-27T06:03:43.776Z,97132.94
2022-10-27T06:06:11.468Z,97127.53
2022-10-27T06:08:39.175Z,97136.13
2022-10-27T06:11:06.918Z,97137.00
2022-10-27T06:13:34.603Z,97132.16
2022-10-27T06:16:03.733Z,97133.78
2022-10-27T06:18:31.459Z,97139.69
2022-10-27T06:20:59.200Z,97140.50
2022-10-27T06:23:27.012Z,97142.69
2022-10-27T06:25:58.836Z,97146.47
2022-10-27T06:28:26.944Z,97154.25
2022-10-27T06:30:55.057Z,97147.81
2022-10-27T06:33:24.098Z,97147.00
2022-10-27T06:35:51.804Z,97151.31
2022-10-27T06:38:19.487Z,97161.00
2022-10-27T06:40:47.188Z,97153.19
2022-10-27T06:43:15.663Z,97154.53
2022-10-27T06:45:47.867Z,97154.22
2022-10-27T06:48:15.725Z,97154.75
2022-10-27T06:50:44.784Z,97147.44
2022-10-27T06:53:12.495Z,97152.78
2022-10-27T06:55:40.224Z,97155.19
2022-10-27T06:58:07.900Z,97163.56
2022-10-27T07:00:37.049Z,97165.47
2022-10-27T07:05:41.718Z,97165.19
2022-10-27T07:08:10.754Z,97161.94
2022-10-27T07:10:38.504Z,97168.41
2022-10-27T07:13:06.176Z,97174.00
2022-10-27T07:15:37.009Z,97183.16
2022-10-27T07:18:06.868Z,97174.22
2022-10-27T07:20:35.986Z,97177.38
2022-10-27T07:23:04.521Z,97175.22
2022-10-27T07:25:34.977Z,97184.91
2022-10-27T07:28:04.752Z,97184.31
2022-10-27T07:30:34.531Z,97187.72
2022-10-27T07:33:02.200Z,97181.75
2022-10-27T07:35:30.380Z,97186.25
2022-10-27T07:37:58.676Z,97187.28
2022-10-27T07:40:28.976Z,97187.97
2022-10-27T07:43:07.115Z,97198.69
2022-10-27T07:45:36.794Z,97192.13
2022-10-27T07:48:05.048Z,97190.91
2022-10-27T07:50:34.029Z,97184.91
2022-10-27T07:53:02.992Z,97191.28
2022-10-27T07:55:32.843Z,97191.47
2022-10-27T07:58:03.750Z,97194.06
2022-10-27T08:00:34.375Z,97186.63
2022-10-27T08:03:03.196Z,97187.66
2022-10-27T08:05:31.284Z,97188.34
2022-10-27T08:07:59.928Z,97183.31
2022-10-27T08:10:28.500Z,97176.38
2022-10-27T08:12:56.167Z,97176.22
2022-10-27T08:15:25.308Z,97177.09
2022-10-27T08:17:53.813Z,97168.03
2022-10-27T08:20:22.502Z,97167.06
2022-10-27T08:22:55.871Z,97168.81
2022-10-27T08:25:23.572Z,97174.09
2022-10-27T08:27:51.613Z,97166.91
2022-10-27T08:30:20.151Z,97171.84
2022-10-27T08:32:50.355Z,97177.06
2022-10-27T08:35:18.843Z,97176.59
2022-10-27T08:37:46.588Z,97184.28
2022-10-27T08:40:14.647Z,97181.09
2022-10-27T08:42:53.692Z,97173.78
2022-10-27T08:45:27.432Z,97174.56
2022-10-27T08:47:58.369Z,97178.28
2022-10-27T08:50:28.721Z,97183.38
2022-10-27T08:53:04.717Z,97172.50
2022-10-27T08:55:36.887Z,97174.88
2022-10-27T08:58:11.380Z,97176.75
2022-10-27T09:00:49.441Z,97172.75
2022-10-27T09:03:46.572Z,97169.72
2022-10-27T09:06:19.899Z,97175.75
2022-10-27T09:08:58.759Z,97175.50
2022-10-27T09:11:38.401Z,97173.31
2022-10-27T09:14:23.641Z,97171.63
2022-10-27T09:16:56.044Z,97173.13
2022-10-27T09:19:30.335Z,97174.47
2022-10-27T09:21:58.752Z,97181.22
2022-10-27T09:24:30.326Z,97191.81
2022-10-27T09:27:00.220Z,97192.66
2022-10-27T09:29:30.906Z,97185.84
2022-10-27T09:32:01.416Z,97193.72
2022-10-27T09:34:37.611Z,97188.78
2022-10-27T09:37:13.564Z,97189.44
2022-10-27T09:39:47.336Z,97192.34
2022-10-27T09:42:15.905Z,97198.25
2022-10-27T09:44:48.064Z,97199.53
2022-10-27T09:47:15.840Z,97200.84
2022-10-27T09:49:48.385Z,97197.59
2022-10-27T09:52:21.000Z,97195.88
2022-10-27T09:54:55.351Z,97194.09
2022-10-27T09:57:28.985Z,97192.13
2022-10-27T10:00:00.618Z,97185.81
2022-10-27T10:02:31.404Z,97182.69
2022-10-27T10:05:01.456Z,97184.59
2022-10-27T10:07:32.863Z,97190.31
2022-10-27T10:10:07.128Z,97184.38
2022-10-27T10:12:35.213Z,97188.31
2022-10-27T10:15:20.548Z,97191.16
2022-10-27T10:17:57.554Z,97187.56
2022-10-27T10:23:21.669Z,97181.16
2022-10-27T10:25:50.472Z,97177.16
2022-10-27T10:28:24.894Z,97171.41
2022-10-27T10:30:54.452Z,97183.59
2022-10-27T10:33:25.411Z,97193.78
2022-10-27T10:35:55.145Z,97183.22
2022-10-27T10:38:31.481Z,97185.38
2022-10-27T10:41:07.676Z,97189.28
2022-10-27T10:43:35.414Z,97191.97
2022-10-27T10:46:04.213Z,97189.06
2022-10-27T10:48:38.792Z,97186.56
2022-10-27T10:51:09.712Z,97184.00
2022-10-27T10:53:44.063Z,97186.22
2022-10-27T10:56:23.533Z,97183.59
2022-10-27T10:58:56.631Z,97187.59
2022-10-27T11:01:24.509Z,97185.41
2022-10-27T11:03:55.780Z,97183.63
2022-10-27T11:06:24.880Z,97185.47
2022-10-27T11:08:58.089Z,97188.28
2022-10-27T11:11:29.752Z,97177.97
2022-10-27T11:14:01.307Z,97173.56
2022-10-27T11:16:32.209Z,97170.06
2022-10-27T11:19:08.627Z,97168.41
2022-10-27T11:21:41.909Z,97161.59
2022-10-27T11:24:16.583Z,97169.03
2022-10-27T11:27:03.617Z,97157.03
2022-10-27T11:29:40.502Z,97146.41
2022-10-27T11:32:15.963Z,97147.03
2022-10-27T11:34:52.241Z,97144.63
2022-10-27T11:37:29.776Z,97150.22
2022-10-27T11:40:03.412Z,97141.16
2022-10-27T11:42:39.876Z,97148.00
2022-10-27T11:45:16.822Z,97142.56
2022-10-27T11:47:47.455Z,97145.63
2022-10-27T11:50:21.319Z,97145.00
2022-10-27T11:52:53.498Z,97144.00
2022-10-27T11:55:25.712Z,97137.97
2022-10-27T11:58:00.736Z,97145.84
2022-10-27T12:00:30.363Z,97141.97
2022-10-27T12:03:17.987Z,97133.53
2022-10-27T12:05:49.426Z,97137.06
2022-10-27T12:08:25.546Z,97137.09
2022-10-27T12:11:02.767Z,97130.47
2022-10-27T12:13:35.277Z,97134.84
2022-10-27T12:16:09.136Z,97129.66
2022-10-27T12:18:43.512Z,97116.72
2022-10-27T12:21:15.987Z,97118.69
2022-10-27T12:23:49.459Z,97113.91
2022-10-27T12:26:22.999Z,97119.34
2022-10-27T12:28:51.564Z,97118.53
2022-10-27T12:31:24.127Z,97110.59
2022-10-27T12:33:56.821Z,97116.47
2022-10-27T12:39:19.491Z,97108.75
2022-10-27T12:41:53.269Z,97111.91
2022-10-27T12:44:32.116Z,97101.25
2022-10-27T12:47:14.772Z,97105.91
2022-10-27T12:49:52.943Z,97104.59
2022-10-27T12:52:23.580Z,97106.03
2022-10-27T12:55:18.003Z,97105.94
2022-10-27T12:57:55.121Z,97103.97
2022-10-27T13:03:21.846Z,97103.91
2022-10-27T13:06:08.791Z,97098.34
2022-10-27T13:09:07.738Z,97100.59
2022-10-27T13:12:08.955Z,97093.38
2022-10-27T13:15:27.215Z,97092.84
2022-10-27T13:18:05.084Z,97091.97
2022-10-27T13:20:49.681Z,97089.53
2022-10-27T13:23:25.183Z,97089.53
2022-10-27T13:25:59.675Z,97089.00
2022-10-27T13:28:34.479Z,97092.13
2022-10-27T13:31:06.032Z,97089.69
2022-10-27T13:33:36.918Z,97084.56
2022-10-27T13:36:17.320Z,97084.50
2022-10-27T13:38:45.280Z,97090.28
2022-10-27T13:41:33.040Z,97082.69
2022-10-27T13:44:00.748Z,97075.53
2022-10-27T13:47:11.296Z,97067.22
2022-10-27T13:49:57.163Z,97062.75
2022-10-27T13:52:28.953Z,97061.41
2022-10-27T13:54:59.599Z,97071.56
2022-10-27T13:57:46.189Z,97067.06
2022-10-27T14:00:18.061Z,97075.53
2022-10-27T14:02:55.654Z,97072.19
2022-10-27T14:05:32.551Z,97072.88
2022-10-27T14:08:01.894Z,97064.53
2022-10-27T14:10:30.459Z,97066.31
2022-10-27T14:12:59.208Z,97068.66
2022-10-27T14:15:28.592Z,97070.03
2022-10-27T14:17:58.167Z,97068.97
2022-10-27T14:20:30.248Z,97064.13
2022-10-27T14:23:07.854Z,97065.44
2022-10-27T14:25:35.821Z,97068.38
2022-10-27T14:28:14.985Z,97065.03
2022-10-27T14:30:43.190Z,97059.72
2022-10-27T14:33:23.239Z,97056.47
2022-10-27T14:36:06.627Z,97065.34
2022-10-27T14:38:34.394Z,97068.00
2022-10-27T14:41:02.778Z,97065.84
2022-10-27T14:43:32.904Z,97068.78
2022-10-27T14:46:02.684Z,97065.50
2022-10-27T14:48:33.150Z,97063.75
2022-10-27T14:51:11.785Z,97074.63
2022-10-27T14:53:39.768Z,97075.69
2022-10-27T14:56:17.860Z,97075.91
2022-10-27T14:58:54.617Z,97064.41
2022-10-27T15:01:27.658Z,97070.94
2022-10-27T15:03:58.578Z,97067.19
2022-10-27T15:06:32.393Z,97079.59
2022-10-27T15:09:00.315Z,97063.97
2022-10-27T15:11:28.322Z,97064.84
2022-10-27T15:13:56.773Z,97057.00
2022-10-27T15:16:29.138Z,97059.34
2022-10-27T15:18:56.980Z,97052.94
2022-10-27T15:21:28.130Z,97059.81
2022-10-27T15:24:02.265Z,97051.13
2022-10-27T15:26:31.384Z,97060.09
2022-10-27T15:28:59.807Z,97063.28
2022-10-27T15:31:27.931Z,97053.59
2022-10-27T15:33:59.908Z,97062.84
2022-10-27T15:36:29.259Z,97063.19
2022-10-27T15:38:57.039Z,97070.69
2022-10-27T15:41:27.143Z,97067.09
2022-10-27T15:44:16.897Z,97063.63
2022-10-27T15:46:45.995Z,97060.97
2022-10-27T15:49:28.166Z,97061.25
2022-10-27T15:51:59.234Z,97067.25
2022-10-27T15:54:34.235Z,97071.59
2022-10-27T15:57:03.083Z,97066.50
2022-10-27T15:59:32.821Z,97066.63
2022-10-27T16:02:21.415Z,97061.41
2022-10-27T16:04:50.141Z,97070.63
2022-10-27T16:07:33.212Z,97062.53
2022-10-27T16:10:01.215Z,97068.53
2022-10-27T16:12:41.767Z,97073.88
2022-10-27T16:15:17.603Z,97072.97
2022-10-27T16:17:48.456Z,97076.69
2022-10-27T16:20:18.975Z,97076.50
2022-10-27T16:22:48.203Z,97075.13
2022-10-27T16:25:17.229Z,97064.56
2022-10-27T16:27:45.283Z,97070.66
2022-10-27T16:30:17.629Z,97070.84
2022-10-27T16:32:46.459Z,97075.81
2022-10-27T16:35:15.247Z,97078.88
2022-10-27T16:37:43.326Z,97079.06
2022-10-27T16:40:14.790Z,97078.41
2022-10-27T16:42:45.812Z,97079.03
2022-10-27T16:45:14.909Z,97068.78
2022-10-27T16:47:43.085Z,97074.88
2022-10-27T16:50:11.400Z,97069.56
2022-10-27T16:52:39.283Z,97069.38
2022-10-27T16:55:09.970Z,97079.97
2022-10-27T16:57:41.006Z,97065.84
2022-10-27T17:00:14.334Z,97071.44
2022-10-27T17:02:42.255Z,97065.50
2022-10-27T17:05:10.457Z,97073.97
2022-10-27T17:07:39.031Z,97068.50
2022-10-27T17:10:07.765Z,97084.50
2022-10-27T17:12:35.466Z,97079.22
2022-10-27T17:15:05.327Z,97080.63
2022-10-27T17:17:33.029Z,97078.22
2022-10-27T17:20:00.882Z,97066.66
2022-10-27T17:22:28.617Z,97075.59
2022-10-27T17:24:56.346Z,97072.69
2022-10-27T17:27:24.023Z,97079.91
2022-10-27T17:29:51.887Z,97089.13
2022-10-27T17:32:20.970Z,97082.06
2022-10-27T17:34:48.632Z,97076.91
2022-10-27T17:37:16.323Z,97079.44
2022-10-27T17:39:44.000Z,97084.00
2022-10-27T17:42:13.075Z,97092.16
2022-10-27T17:44:40.832Z,97087.38
2022-10-27T17:47:08.550Z,97088.56
2022-10-27T17:49:37.547Z,97080.41
2022-10-27T17:52:05.513Z,97083.91
2022-10-27T17:54:33.279Z,97080.91
2022-10-27T17:57:01.038Z,97085.56
2022-10-27T17:59:29.385Z,97083.13
2022-10-27T18:01:57.270Z,97086.97
2022-10-27T18:04:25.044Z,97085.34
2022-10-27T18:06:54.089Z,97083.56
2022-10-27T18:09:21.790Z,97083.69
2022-10-27T18:11:49.548Z,97089.53
2022-10-27T18:14:18.751Z,97087.28
2022-10-27T18:16:46.484Z,97083.09
2022-10-27T18:19:15.774Z,97080.50
2022-10-27T18:21:45.098Z,97081.47
2022-10-27T18:24:17.024Z,97080.50
2022-10-27T18:26:47.956Z,97079.50
2022-10-27T18:29:17.780Z,97079.00
2022-10-27T18:31:47.472Z,97086.78
2022-10-27T18:34:16.834Z,97088.81
2022-10-27T18:36:45.620Z,97095.25
2022-10-27T18:39:17.163Z,97085.03
2022-10-27T18:41:45.361Z,97087.06
2022-10-27T18:44:13.448Z,97091.66
2022-10-27T18:46:41.146Z,97091.97
2022-10-27T18:49:15.887Z,97089.56
2022-10-27T18:51:44.169Z,97080.22
2022-10-27T18:54:13.453Z,97090.06
2022-10-27T18:56:42.733Z,97091.50
2022-10-27T18:59:13.136Z,97095.31
2022-10-27T19:01:42.045Z,97091.09
2022-10-27T19:04:09.957Z,97090.19
2022-10-27T19:06:37.972Z,97093.22
2022-10-27T19:09:06.192Z,97090.50
2022-10-27T19:11:36.530Z,97087.59
2022-10-27T19:14:06.382Z,97091.63
2022-10-27T19:16:34.112Z,97088.50
2022-10-27T19:19:02.416Z,97090.63
2022-10-27T19:21:30.949Z,97093.31
2022-10-27T19:24:03.099Z,97095.13
2022-10-27T19:26:32.314Z,97090.00
2022-10-27T19:29:00.600Z,97090.91
2022-10-27T19:31:33.169Z,97091.09
2022-10-27T19:34:01.115Z,97093.00
2022-10-27T19:36:30.996Z,97101.16
2022-10-27T19:38:59.865Z,97098.75
2022-10-27T19:41:29.883Z,97103.97
2022-10-27T19:43:58.387Z,97099.94
2022-10-27T19:46:27.404Z,97111.41
2022-10-27T19:48:58.274Z,97114.44
2022-10-27T19:51:28.264Z,97116.03
2022-10-27T19:53:57.653Z,97120.03
2022-10-27T19:56:27.179Z,97124.97
2022-10-27T19:58:58.109Z,97131.19
2022-10-27T20:01:27.497Z,97131.50
2022-10-27T20:03:56.898Z,97136.63
2022-10-27T20:06:24.908Z,97136.28
2022-10-27T20:08:56.230Z,97140.13
2022-10-27T20:11:26.190Z,97144.16
2022-10-27T20:13:55.443Z,97138.72
2022-10-27T20:16:27.544Z,97135.19
2022-10-27T20:19:01.250Z,97134.09
2022-10-27T20:21:29.655Z,97122.47
2022-10-27T20:23:57.953Z,97125.34
2022-10-27T20:26:29.777Z,97129.06
2022-10-27T20:28:58.395Z,97125.56
2022-10-27T20:31:26.149Z,97128.00
2022-10-27T20:33:53.966Z,97134.00
2022-10-27T20:36:23.199Z,97137.31
2022-10-27T20:38:51.139Z,97127.56
2022-10-27T20:41:20.703Z,97120.53
2022-10-27T20:43:49.473Z,97125.16
2022-10-27T20:46:17.187Z,97128.69
2022-10-27T20:48:44.883Z,97134.59
2022-10-27T20:51:15.087Z,97129.69
2022-10-27T20:53:44.582Z,97138.09
2022-10-27T20:56:15.959Z,97128.97
2022-10-27T20:58:44.720Z,97141.50
2022-10-27T21:01:16.615Z,97130.94
2022-10-27T21:03:44.636Z,97134.53
2022-10-27T21:06:12.304Z,97133.03
2022-10-27T21:08:40.005Z,97135.03
2022-10-27T21:11:09.090Z,97126.59
2022-10-27T21:13:36.754Z,97130.28
2022-10-27T21:16:04.467Z,97123.56
2022-10-27T21:18:32.177Z,97127.75
2022-10-27T21:20:59.815Z,97129.75
2022-10-27T21:23:27.551Z,97127.31
2022-10-27T21:25:55.276Z,97124.91
2022-10-27T21:28:24.387Z,97111.97
2022-10-27T21:30:52.091Z,97121.28
2022-10-27T21:33:19.787Z,97120.66
2022-10-27T21:35:49.756Z,97120.50
2022-10-27T21:38:17.456Z,97114.16
2022-10-27T21:40:45.108Z,97115.25
2022-10-27T21:43:12.855Z,97107.50
2022-10-27T21:45:41.964Z,97114.53
2022-10-27T21:48:09.692Z,97114.31
2022-10-27T21:50:38.565Z,97108.28
2022-10-27T21:53:06.272Z,97109.41
2022-10-27T21:55:33.990Z,97118.13
2022-10-27T21:58:01.739Z,97120.28
2022-10-27T22:00:29.490Z,97113.28
2022-10-27T22:02:58.555Z,97113.50
2022-10-27T22:05:26.295Z,97108.97
2022-10-27T22:07:54.683Z,97119.81
2022-10-27T22:10:22.543Z,97105.25
2022-10-27T22:12:50.421Z,97105.75
2022-10-27T22:15:18.386Z,97109.06
2022-10-27T22:17:46.072Z,97119.34
2022-10-27T22:20:15.296Z,97120.44
2022-10-27T22:22:43.006Z,97119.41
2022-10-27T22:25:11.191Z,97111.81
2022-10-27T22:27:38.908Z,97115.03
2022-10-27T22:30:08.098Z,97105.31
2022-10-27T22:32:35.767Z,97107.44
2022-10-27T22:35:03.494Z,97105.75
2022-10-27T22:37:32.520Z,97099.44
2022-10-27T22:40:00.201Z,97091.06
2022-10-27T22:42:27.904Z,97101.88
2022-10-27T22:44:55.558Z,97099.97
2022-10-27T22:47:23.266Z,97094.84
2022-10-27T22:49:53.116Z,97087.84
2022-10-27T22:52:23.218Z,97093.81
2022-10-27T22:54:52.259Z,97085.44
2022-10-27T22:57:19.959Z,97094.44
2022-10-27T23:02:20.373Z,97103.78
2022-10-27T23:04:48.115Z,97104.38
2022-10-27T23:07:15.800Z,97097.41
2022-10-27T23:09:43.468Z,97104.00
2022-10-27T23:12:12.515Z,97098.34
2022-10-27T23:14:40.211Z,97102.69
2022-10-27T23:17:07.921Z,97096.75
2022-10-27T23:19:35.601Z,97101.06
2022-10-27T23:22:03.280Z,97102.16
2022-10-27T23:24:31.451Z,97097.56
2022-10-27T23:26:59.469Z,97102.47
2022-10-27T23:29:28.556Z,97094.84
2022-10-27T23:31:56.243Z,97099.16
2022-10-27T23:34:23.940Z,97094.41
2022-10-27T23:36:51.634Z,97091.53
2022-10-27T23:39:19.330Z,97085.81
2022-10-27T23:41:47.039Z,97086.63
2022-10-27T23:44:14.738Z,97095.53
2022-10-27T23:46:43.799Z,97099.09
2022-10-27T23:49:11.554Z,97094.06
2022-10-27T23:51:39.257Z,97090.03
2022-10-27T23:54:07.232Z,97083.56
2022-10-27T23:56:34.915Z,97087.78
2022-10-27T23:59:02.625Z,97087.50
